sensor_id;sensor_type;location;lat;lon;timestamp;P1;P2;P0
72854;PMS7003;60991;51.278;22.550;2023-01-13T00:00:52;31.33;25.33;16.00
72854;PMS7003;60991;51.278;22.550;2023-01-13T00:02:22;22.33;16.00;13.33
72854;PMS7003;60991;51.278;22.550;2023-01-13T00:03:53;27.00;19.67;10.33
72854;PMS7003;60991;51.278;22.550;2023-01-13T00:05:23;26.75;22.50;16.25
72854;PMS7003;60991;51.278;22.550;2023-01-13T00:06:53;26.25;24.00;17.75
72854;PMS7003;60991;51.278;22.550;2023-01-13T00:08:24;20.33;16.33;12.33
72854;PMS7003;60991;51.278;22.550;2023-01-13T00:09:54;29.67;25.67;16.00
72854;PMS7003;60991;51.278;22.550;2023-01-13T00:11:24;31.33;23.67;15.33
72854;PMS7003;60991;51.278;22.550;2023-01-13T00:12:54;33.75;25.00;16.75
72854;PMS7003;60991;51.278;22.550;2023-01-13T00:14:25;31.00;23.00;14.25
72854;PMS7003;60991;51.278;22.550;2023-01-13T00:15:55;31.67;25.33;17.00
72854;PMS7003;60991;51.278;22.550;2023-01-13T00:17:29;30.00;25.75;14.75
72854;PMS7003;60991;51.278;22.550;2023-01-13T00:19:00;29.33;23.00;15.67
72854;PMS7003;60991;51.278;22.550;2023-01-13T00:20:30;34.25;26.25;17.50
72854;PMS7003;60991;51.278;22.550;2023-01-13T00:22:00;23.25;19.00;12.75
72854;PMS7003;60991;51.278;22.550;2023-01-13T00:23:31;22.67;19.67;15.00
72854;PMS7003;60991;51.278;22.550;2023-01-13T00:25:02;32.50;24.50;16.00
72854;PMS7003;60991;51.278;22.550;2023-01-13T00:26:33;31.75;25.00;16.25
72854;PMS7003;60991;51.278;22.550;2023-01-13T00:28:03;29.67;21.33;15.00
72854;PMS7003;60991;51.278;22.550;2023-01-13T00:29:33;27.75;24.00;17.50
72854;PMS7003;60991;51.278;22.550;2023-01-13T00:31:07;29.00;24.67;17.00
72854;PMS7003;60991;51.278;22.550;2023-01-13T00:32:39;20.00;19.00;9.00
72854;PMS7003;60991;51.278;22.550;2023-01-13T00:34:09;27.75;20.50;15.00
72854;PMS7003;60991;51.278;22.550;2023-01-13T00:35:39;24.67;21.33;16.00
72854;PMS7003;60991;51.278;22.550;2023-01-13T00:37:10;24.50;22.00;15.25
72854;PMS7003;60991;51.278;22.550;2023-01-13T00:38:40;30.00;25.67;15.67
72854;PMS7003;60991;51.278;22.550;2023-01-13T00:40:11;36.50;25.00;16.00
72854;PMS7003;60991;51.278;22.550;2023-01-13T00:41:42;16.50;13.25;8.25
72854;PMS7003;60991;51.278;22.550;2023-01-13T00:43:12;21.67;20.00;15.67
72854;PMS7003;60991;51.278;22.550;2023-01-13T00:44:42;23.67;21.67;13.67
72854;PMS7003;60991;51.278;22.550;2023-01-13T00:46:13;30.67;23.67;15.33
72854;PMS7003;60991;51.278;22.550;2023-01-13T00:47:46;27.75;20.50;13.00
72854;PMS7003;60991;51.278;22.550;2023-01-13T00:49:16;32.33;25.33;15.00
72854;PMS7003;60991;51.278;22.550;2023-01-13T00:50:53;29.50;20.75;15.00
72854;PMS7003;60991;51.278;22.550;2023-01-13T00:52:24;16.00;14.25;8.00
72854;PMS7003;60991;51.278;22.550;2023-01-13T00:53:55;25.00;21.33;15.00
72854;PMS7003;60991;51.278;22.550;2023-01-13T00:55:26;29.50;21.50;15.00
72854;PMS7003;60991;51.278;22.550;2023-01-13T00:56:59;29.75;25.25;16.00
72854;PMS7003;60991;51.278;22.550;2023-01-13T00:58:30;21.33;20.00;12.67
72854;PMS7003;60991;51.278;22.550;2023-01-13T01:00:02;27.00;22.50;16.00
72854;PMS7003;60991;51.278;22.550;2023-01-13T01:01:32;28.00;26.25;17.25
72854;PMS7003;60991;51.278;22.550;2023-01-13T01:03:03;23.25;19.75;15.75
72854;PMS7003;60991;51.278;22.550;2023-01-13T01:04:33;28.00;23.67;15.00
72854;PMS7003;60991;51.278;22.550;2023-01-13T01:06:04;20.00;19.75;13.00
72854;PMS7003;60991;51.278;22.550;2023-01-13T01:07:37;27.50;24.25;15.75
72854;PMS7003;60991;51.278;22.550;2023-01-13T01:09:08;29.00;26.00;16.33
72854;PMS7003;60991;51.278;22.550;2023-01-13T01:10:42;38.25;27.25;16.25
72854;PMS7003;60991;51.278;22.550;2023-01-13T01:12:12;30.33;23.00;15.00
72854;PMS7003;60991;51.278;22.550;2023-01-13T01:13:42;33.67;27.33;17.33
72854;PMS7003;60991;51.278;22.550;2023-01-13T01:15:13;26.75;22.00;14.75
72854;PMS7003;60991;51.278;22.550;2023-01-13T01:16:43;26.67;20.00;13.00
72854;PMS7003;60991;51.278;22.550;2023-01-13T01:18:14;35.75;26.25;16.75
72854;PMS7003;60991;51.278;22.550;2023-01-13T01:19:44;17.33;12.00;9.00
72854;PMS7003;60991;51.278;22.550;2023-01-13T01:21:14;30.33;25.00;17.33
72854;PMS7003;60991;51.278;22.550;2023-01-13T01:22:45;24.25;22.25;15.00
72854;PMS7003;60991;51.278;22.550;2023-01-13T01:24:16;36.25;25.75;14.25
72854;PMS7003;60991;51.278;22.550;2023-01-13T01:25:47;25.50;22.00;15.00
72854;PMS7003;60991;51.278;22.550;2023-01-13T01:27:17;43.33;27.67;15.33
72854;PMS7003;60991;51.278;22.550;2023-01-13T01:28:47;21.33;15.67;12.00
72854;PMS7003;60991;51.278;22.550;2023-01-13T01:30:18;24.25;22.75;14.75
72854;PMS7003;60991;51.278;22.550;2023-01-13T01:31:48;26.50;22.50;16.00
72854;PMS7003;60991;51.278;22.550;2023-01-13T01:33:19;23.67;18.33;13.00
72854;PMS7003;60991;51.278;22.550;2023-01-13T01:34:49;29.00;22.67;13.67
72854;PMS7003;60991;51.278;22.550;2023-01-13T01:36:20;24.00;22.50;15.00
72854;PMS7003;60991;51.278;22.550;2023-01-13T01:37:52;28.50;23.75;16.00
72854;PMS7003;60991;51.278;22.550;2023-01-13T01:39:22;22.00;17.33;12.67
72854;PMS7003;60991;51.278;22.550;2023-01-13T01:40:52;21.00;16.00;12.00
72854;PMS7003;60991;51.278;22.550;2023-01-13T01:42:22;18.00;16.50;12.50
72854;PMS7003;60991;51.278;22.550;2023-01-13T01:45:45;18.75;15.50;12.25
72854;PMS7003;60991;51.278;22.550;2023-01-13T01:47:16;33.33;23.00;17.33
72854;PMS7003;60991;51.278;22.550;2023-01-13T01:48:47;31.00;23.00;15.25
72854;PMS7003;60991;51.278;22.550;2023-01-13T01:50:17;25.67;23.33;15.67
72854;PMS7003;60991;51.278;22.550;2023-01-13T01:51:49;27.25;23.00;14.25
72854;PMS7003;60991;51.278;22.550;2023-01-13T01:53:25;27.50;19.75;14.50
72854;PMS7003;60991;51.278;22.550;2023-01-13T01:56:30;27.00;22.50;16.00
72854;PMS7003;60991;51.278;22.550;2023-01-13T01:58:21;28.75;22.25;14.50
72854;PMS7003;60991;51.278;22.550;2023-01-13T01:59:58;32.50;19.75;13.75
72854;PMS7003;60991;51.278;22.550;2023-01-13T02:01:30;22.25;19.75;14.25
72854;PMS7003;60991;51.278;22.550;2023-01-13T02:03:02;24.50;18.50;12.75
72854;PMS7003;60991;51.278;22.550;2023-01-13T02:04:37;23.25;22.75;16.00
72854;PMS7003;60991;51.278;22.550;2023-01-13T02:06:09;26.00;23.25;15.25
72854;PMS7003;60991;51.278;22.550;2023-01-13T02:07:41;26.50;21.00;12.50
72854;PMS7003;60991;51.278;22.550;2023-01-13T02:09:14;25.25;19.75;13.00
72854;PMS7003;60991;51.278;22.550;2023-01-13T02:10:48;28.00;23.00;15.00
72854;PMS7003;60991;51.278;22.550;2023-01-13T02:12:22;24.25;22.00;15.00
72854;PMS7003;60991;51.278;22.550;2023-01-13T02:13:54;22.50;17.00;13.00
72854;PMS7003;60991;51.278;22.550;2023-01-13T02:15:34;18.75;18.75;13.00
72854;PMS7003;60991;51.278;22.550;2023-01-13T02:19:28;20.75;19.75;12.25
72854;PMS7003;60991;51.278;22.550;2023-01-13T02:21:25;26.75;18.25;13.75
72854;PMS7003;60991;51.278;22.550;2023-01-13T02:23:20;22.25;19.50;12.00
72854;PMS7003;60991;51.278;22.550;2023-01-13T02:32:07;29.50;18.50;11.50
72854;PMS7003;60991;51.278;22.550;2023-01-13T02:33:51;18.75;18.25;13.50
72854;PMS7003;60991;51.278;22.550;2023-01-13T02:37:21;29.00;22.75;15.00
72854;PMS7003;60991;51.278;22.550;2023-01-13T02:39:03;26.50;21.75;15.25
72854;PMS7003;60991;51.278;22.550;2023-01-13T02:40:39;30.25;23.75;16.00
72854;PMS7003;60991;51.278;22.550;2023-01-13T02:42:17;28.75;21.25;16.00
72854;PMS7003;60991;51.278;22.550;2023-01-13T02:44:02;18.25;17.50;14.50
72854;PMS7003;60991;51.278;22.550;2023-01-13T02:45:38;21.75;19.00;12.25
72854;PMS7003;60991;51.278;22.550;2023-01-13T02:47:33;23.50;18.00;12.75
72854;PMS7003;60991;51.278;22.550;2023-01-13T02:49:07;24.50;19.75;13.25
72854;PMS7003;60991;51.278;22.550;2023-01-13T02:50:43;27.75;21.00;12.25
72854;PMS7003;60991;51.278;22.550;2023-01-13T02:55:36;29.75;22.75;15.25
72854;PMS7003;60991;51.278;22.550;2023-01-13T02:57:11;27.00;23.25;14.50
72854;PMS7003;60991;51.278;22.550;2023-01-13T02:58:46;24.25;20.00;12.00
72854;PMS7003;60991;51.278;22.550;2023-01-13T03:00:18;26.25;22.00;15.75
72854;PMS7003;60991;51.278;22.550;2023-01-13T03:01:49;21.75;20.75;15.25
72854;PMS7003;60991;51.278;22.550;2023-01-13T03:03:20;26.75;22.25;16.25
72854;PMS7003;60991;51.278;22.550;2023-01-13T03:04:54;20.50;18.75;14.00
72854;PMS7003;60991;51.278;22.550;2023-01-13T03:18:07;17.50;15.00;12.00
72854;PMS7003;60991;51.278;22.550;2023-01-13T03:19:56;19.50;18.50;12.00
72854;PMS7003;60991;51.278;22.550;2023-01-13T03:23:14;23.50;19.00;14.50
72854;PMS7003;60991;51.278;22.550;2023-01-13T03:25:01;22.00;19.50;12.75
72854;PMS7003;60991;51.278;22.550;2023-01-13T03:26:51;19.25;18.75;12.50
72854;PMS7003;60991;51.278;22.550;2023-01-13T03:28:24;23.25;20.00;11.75
72854;PMS7003;60991;51.278;22.550;2023-01-13T03:31:32;24.50;24.50;14.50
72854;PMS7003;60991;51.278;22.550;2023-01-13T03:33:12;26.25;20.75;13.50
72854;PMS7003;60991;51.278;22.550;2023-01-13T03:34:50;22.75;19.25;12.00
72854;PMS7003;60991;51.278;22.550;2023-01-13T03:36:24;22.75;19.50;12.00
72854;PMS7003;60991;51.278;22.550;2023-01-13T03:37:59;27.00;19.75;14.00
72854;PMS7003;60991;51.278;22.550;2023-01-13T03:39:35;18.25;16.50;12.75
72854;PMS7003;60991;51.278;22.550;2023-01-13T03:43:00;18.25;16.00;11.25
72854;PMS7003;60991;51.278;22.550;2023-01-13T03:44:37;22.75;19.50;12.00
72854;PMS7003;60991;51.278;22.550;2023-01-13T03:46:14;24.25;22.25;14.00
72854;PMS7003;60991;51.278;22.550;2023-01-13T03:47:51;20.50;17.25;11.50
72854;PMS7003;60991;51.278;22.550;2023-01-13T03:49:28;21.25;16.00;10.25
72854;PMS7003;60991;51.278;22.550;2023-01-13T03:51:21;21.25;17.75;11.25
72854;PMS7003;60991;51.278;22.550;2023-01-13T03:52:55;22.00;21.75;13.75
72854;PMS7003;60991;51.278;22.550;2023-01-13T03:54:31;19.50;16.25;12.00
72854;PMS7003;60991;51.278;22.550;2023-01-13T03:56:14;15.00;14.50;8.50
72854;PMS7003;60991;51.278;22.550;2023-01-13T03:57:56;17.00;16.00;10.25
72854;PMS7003;60991;51.278;22.550;2023-01-13T03:59:41;17.25;15.25;12.00
72854;PMS7003;60991;51.278;22.550;2023-01-13T04:01:21;16.50;10.50;9.00
72854;PMS7003;60991;51.278;22.550;2023-01-13T04:03:02;28.25;16.75;11.50
72854;PMS7003;60991;51.278;22.550;2023-01-13T04:04:49;17.25;15.50;12.00
72854;PMS7003;60991;51.278;22.550;2023-01-13T04:06:30;25.25;18.75;12.75
72854;PMS7003;60991;51.278;22.550;2023-01-13T04:08:09;20.50;17.25;11.75
72854;PMS7003;60991;51.278;22.550;2023-01-13T04:09:53;20.75;17.25;12.00
72854;PMS7003;60991;51.278;22.550;2023-01-13T04:11:32;16.75;16.50;12.75
72854;PMS7003;60991;51.278;22.550;2023-01-13T04:13:09;17.25;15.75;12.25
72854;PMS7003;60991;51.278;22.550;2023-01-13T04:14:43;18.50;14.00;11.00
72854;PMS7003;60991;51.278;22.550;2023-01-13T04:16:14;15.00;15.00;11.50
72854;PMS7003;60991;51.278;22.550;2023-01-13T04:17:44;18.50;14.75;10.25
72854;PMS7003;60991;51.278;22.550;2023-01-13T04:19:15;21.25;15.75;10.50
72854;PMS7003;60991;51.278;22.550;2023-01-13T04:20:46;16.75;13.00;8.50
72854;PMS7003;60991;51.278;22.550;2023-01-13T04:22:18;19.75;12.75;8.75
72854;PMS7003;60991;51.278;22.550;2023-01-13T04:23:49;16.00;13.00;10.33
72854;PMS7003;60991;51.278;22.550;2023-01-13T04:25:19;18.33;13.67;10.33
72854;PMS7003;60991;51.278;22.550;2023-01-13T04:26:49;22.33;19.33;13.00
72854;PMS7003;60991;51.278;22.550;2023-01-13T04:28:19;11.25;6.00;6.00
72854;PMS7003;60991;51.278;22.550;2023-01-13T04:29:50;18.00;13.00;9.00
72854;PMS7003;60991;51.278;22.550;2023-01-13T04:31:20;13.67;13.00;10.00
72854;PMS7003;60991;51.278;22.550;2023-01-13T04:32:51;15.00;13.00;9.50
72854;PMS7003;60991;51.278;22.550;2023-01-13T04:34:21;19.00;15.25;12.00
72854;PMS7003;60991;51.278;22.550;2023-01-13T04:35:51;19.00;13.33;8.67
72854;PMS7003;60991;51.278;22.550;2023-01-13T04:37:22;20.00;16.00;12.67
72854;PMS7003;60991;51.278;22.550;2023-01-13T04:38:55;16.75;11.50;9.00
72854;PMS7003;60991;51.278;22.550;2023-01-13T04:40:25;20.00;13.75;11.50
72854;PMS7003;60991;51.278;22.550;2023-01-13T04:41:55;14.00;12.25;9.25
72854;PMS7003;60991;51.278;22.550;2023-01-13T04:43:26;16.67;15.67;9.33
72854;PMS7003;60991;51.278;22.550;2023-01-13T04:44:56;15.67;11.33;7.33
72854;PMS7003;60991;51.278;22.550;2023-01-13T04:46:26;16.00;13.33;9.33
72854;PMS7003;60991;51.278;22.550;2023-01-13T04:47:56;16.00;15.00;9.00
72854;PMS7003;60991;51.278;22.550;2023-01-13T04:49:27;16.50;14.75;9.75
72854;PMS7003;60991;51.278;22.550;2023-01-13T04:50:57;15.50;12.00;8.00
72854;PMS7003;60991;51.278;22.550;2023-01-13T04:52:27;12.67;8.67;8.00
72854;PMS7003;60991;51.278;22.550;2023-01-13T04:53:57;14.67;10.00;8.00
72854;PMS7003;60991;51.278;22.550;2023-01-13T04:55:28;14.00;9.33;8.00
72854;PMS7003;60991;51.278;22.550;2023-01-13T04:56:58;13.50;12.25;8.75
72854;PMS7003;60991;51.278;22.550;2023-01-13T04:58:28;12.00;11.00;8.75
72854;PMS7003;60991;51.278;22.550;2023-01-13T04:59:59;14.33;10.00;9.00
72854;PMS7003;60991;51.278;22.550;2023-01-13T05:01:29;17.25;13.50;10.00
72854;PMS7003;60991;51.278;22.550;2023-01-13T05:03:00;18.50;13.25;8.50
72854;PMS7003;60991;51.278;22.550;2023-01-13T05:04:31;16.00;11.75;9.00
72854;PMS7003;60991;51.278;22.550;2023-01-13T05:06:01;9.75;9.75;8.00
72854;PMS7003;60991;51.278;22.550;2023-01-13T05:07:31;10.00;9.00;8.00
72854;PMS7003;60991;51.278;22.550;2023-01-13T05:09:01;13.75;12.25;8.00
72854;PMS7003;60991;51.278;22.550;2023-01-13T05:10:32;12.25;11.25;8.00
72854;PMS7003;60991;51.278;22.550;2023-01-13T05:12:02;12.00;12.00;9.00
72854;PMS7003;60991;51.278;22.550;2023-01-13T05:13:33;15.25;12.25;9.25
72854;PMS7003;60991;51.278;22.550;2023-01-13T05:15:03;16.33;12.67;9.33
72854;PMS7003;60991;51.278;22.550;2023-01-13T05:16:33;8.00;5.75;5.50
72854;PMS7003;60991;51.278;22.550;2023-01-13T05:18:04;15.75;13.00;9.00
72854;PMS7003;60991;51.278;22.550;2023-01-13T05:19:35;13.25;12.50;9.75
72854;PMS7003;60991;51.278;22.550;2023-01-13T05:21:06;16.25;12.25;8.75
72854;PMS7003;60991;51.278;22.550;2023-01-13T05:22:36;11.33;9.67;8.00
72854;PMS7003;60991;51.278;22.550;2023-01-13T05:24:07;15.25;8.50;5.50
72854;PMS7003;60991;51.278;22.550;2023-01-13T05:25:39;13.50;11.75;9.75
72854;PMS7003;60991;51.278;22.550;2023-01-13T05:27:10;12.00;10.00;7.75
72854;PMS7003;60991;51.278;22.550;2023-01-13T05:28:40;9.67;9.67;8.00
72854;PMS7003;60991;51.278;22.550;2023-01-13T05:30:10;14.67;10.00;8.00
72854;PMS7003;60991;51.278;22.550;2023-01-13T05:31:41;20.50;11.50;8.00
72854;PMS7003;60991;51.278;22.550;2023-01-13T05:33:12;13.00;9.33;6.00
72854;PMS7003;60991;51.278;22.550;2023-01-13T05:34:44;17.50;12.50;8.75
72854;PMS7003;60991;51.278;22.550;2023-01-13T05:36:14;10.25;7.75;6.00
72854;PMS7003;60991;51.278;22.550;2023-01-13T05:37:45;12.00;9.00;5.00
72854;PMS7003;60991;51.278;22.550;2023-01-13T05:39:15;15.25;12.00;9.00
72854;PMS7003;60991;51.278;22.550;2023-01-13T05:40:46;12.00;10.00;9.00
72854;PMS7003;60991;51.278;22.550;2023-01-13T05:42:16;6.00;6.00;5.00
72854;PMS7003;60991;51.278;22.550;2023-01-13T05:43:46;15.33;13.33;9.67
72854;PMS7003;60991;51.278;22.550;2023-01-13T05:45:16;13.00;9.67;6.67
72854;PMS7003;60991;51.278;22.550;2023-01-13T05:46:47;13.50;8.75;5.00
72854;PMS7003;60991;51.278;22.550;2023-01-13T05:48:17;19.33;14.67;10.00
72854;PMS7003;60991;51.278;22.550;2023-01-13T05:49:49;9.75;9.00;7.75
72854;PMS7003;60991;51.278;22.550;2023-01-13T05:51:19;13.00;9.00;8.00
72854;PMS7003;60991;51.278;22.550;2023-01-13T05:52:49;10.33;9.00;5.00
72854;PMS7003;60991;51.278;22.550;2023-01-13T05:54:20;17.67;12.00;8.00
72854;PMS7003;60991;51.278;22.550;2023-01-13T05:55:50;12.75;10.75;8.50
72854;PMS7003;60991;51.278;22.550;2023-01-13T05:57:21;12.75;9.75;6.00
72854;PMS7003;60991;51.278;22.550;2023-01-13T05:58:51;10.00;9.00;8.50
72854;PMS7003;60991;51.278;22.550;2023-01-13T06:00:21;14.00;9.00;7.33
72854;PMS7003;60991;51.278;22.550;2023-01-13T06:01:52;14.00;12.00;8.67
72854;PMS7003;60991;51.278;22.550;2023-01-13T06:03:22;12.67;9.33;7.33
72854;PMS7003;60991;51.278;22.550;2023-01-13T06:04:52;10.00;9.00;6.00
72854;PMS7003;60991;51.278;22.550;2023-01-13T06:06:22;9.00;7.33;6.00
72854;PMS7003;60991;51.278;22.550;2023-01-13T06:07:56;12.67;9.67;6.67
72854;PMS7003;60991;51.278;22.550;2023-01-13T06:09:27;13.50;9.00;7.75
72854;PMS7003;60991;51.278;22.550;2023-01-13T06:10:57;10.00;10.00;9.00
72854;PMS7003;60991;51.278;22.550;2023-01-13T06:12:28;17.75;13.00;9.00
72854;PMS7003;60991;51.278;22.550;2023-01-13T06:13:58;13.00;12.33;9.67
72854;PMS7003;60991;51.278;22.550;2023-01-13T06:15:28;10.00;10.00;7.33
72854;PMS7003;60991;51.278;22.550;2023-01-13T06:16:58;15.00;9.50;5.25
72854;PMS7003;60991;51.278;22.550;2023-01-13T06:18:29;8.50;7.25;6.00
72854;PMS7003;60991;51.278;22.550;2023-01-13T06:19:59;11.00;9.33;7.33
72854;PMS7003;60991;51.278;22.550;2023-01-13T06:21:29;12.67;11.33;9.00
72854;PMS7003;60991;51.278;22.550;2023-01-13T06:22:59;13.00;9.00;7.33
72854;PMS7003;60991;51.278;22.550;2023-01-13T06:24:30;14.25;13.75;7.25
72854;PMS7003;60991;51.278;22.550;2023-01-13T06:26:03;13.67;7.67;6.00
72854;PMS7003;60991;51.278;22.550;2023-01-13T06:27:38;10.50;10.50;9.00
72854;PMS7003;60991;51.278;22.550;2023-01-13T06:29:09;13.50;10.75;9.25
72854;PMS7003;60991;51.278;22.550;2023-01-13T06:30:58;15.33;10.33;7.33
72854;PMS7003;60991;51.278;22.550;2023-01-13T06:32:31;16.50;16.00;9.50
72854;PMS7003;60991;51.278;22.550;2023-01-13T06:34:07;10.75;9.25;6.75
72854;PMS7003;60991;51.278;22.550;2023-01-13T06:35:42;11.75;11.75;8.00
72854;PMS7003;60991;51.278;22.550;2023-01-13T06:37:17;10.75;9.00;7.25
72854;PMS7003;60991;51.278;22.550;2023-01-13T06:38:52;15.25;10.75;7.50
72854;PMS7003;60991;51.278;22.550;2023-01-13T06:40:26;16.00;10.75;9.00
72854;PMS7003;60991;51.278;22.550;2023-01-13T06:41:56;14.75;11.50;9.50
72854;PMS7003;60991;51.278;22.550;2023-01-13T06:43:27;10.50;9.75;7.25
72854;PMS7003;60991;51.278;22.550;2023-01-13T06:44:58;13.00;8.50;6.00
72854;PMS7003;60991;51.278;22.550;2023-01-13T06:46:28;12.00;8.50;6.00
72854;PMS7003;60991;51.278;22.550;2023-01-13T06:47:58;14.00;11.00;6.00
72854;PMS7003;60991;51.278;22.550;2023-01-13T06:49:29;16.50;11.00;8.50
72854;PMS7003;60991;51.278;22.550;2023-01-13T06:51:00;14.50;10.75;9.00
72854;PMS7003;60991;51.278;22.550;2023-01-13T06:52:31;13.00;10.75;7.25
72854;PMS7003;60991;51.278;22.550;2023-01-13T06:54:01;13.50;11.75;8.75
72854;PMS7003;60991;51.278;22.550;2023-01-13T06:55:32;10.75;8.50;7.25
72854;PMS7003;60991;51.278;22.550;2023-01-13T06:57:02;9.00;7.33;6.00
72854;PMS7003;60991;51.278;22.550;2023-01-13T06:58:32;11.00;10.00;7.00
72854;PMS7003;60991;51.278;22.550;2023-01-13T07:00:02;13.00;10.67;7.33
72854;PMS7003;60991;51.278;22.550;2023-01-13T07:01:33;6.00;6.00;4.75
72854;PMS7003;60991;51.278;22.550;2023-01-13T07:03:04;10.50;9.00;6.75
72854;PMS7003;60991;51.278;22.550;2023-01-13T07:04:36;10.00;9.75;7.50
72854;PMS7003;60991;51.278;22.550;2023-01-13T07:06:06;17.67;9.67;7.00
72854;PMS7003;60991;51.278;22.550;2023-01-13T07:07:37;16.00;13.00;7.25
72854;PMS7003;60991;51.278;22.550;2023-01-13T07:09:08;13.00;13.00;9.00
72854;PMS7003;60991;51.278;22.550;2023-01-13T07:10:38;9.50;9.00;6.50
72854;PMS7003;60991;51.278;22.550;2023-01-13T07:12:08;10.67;10.00;7.00
72854;PMS7003;60991;51.278;22.550;2023-01-13T07:13:38;10.67;10.67;7.33
72854;PMS7003;60991;51.278;22.550;2023-01-13T07:15:09;11.67;9.67;7.33
72854;PMS7003;60991;51.278;22.550;2023-01-13T07:16:39;13.50;13.00;7.75
72854;PMS7003;60991;51.278;22.550;2023-01-13T07:18:09;16.25;6.50;6.00
72854;PMS7003;60991;51.278;22.550;2023-01-13T07:19:39;13.67;13.00;7.00
72854;PMS7003;60991;51.278;22.550;2023-01-13T07:21:10;10.33;10.00;7.33
72854;PMS7003;60991;51.278;22.550;2023-01-13T07:22:41;11.50;9.00;6.00
72854;PMS7003;60991;51.278;22.550;2023-01-13T07:24:11;13.75;13.00;7.75
72854;PMS7003;60991;51.278;22.550;2023-01-13T07:25:41;12.50;11.25;9.50
72854;PMS7003;60991;51.278;22.550;2023-01-13T07:27:12;14.67;10.00;6.00
72854;PMS7003;60991;51.278;22.550;2023-01-13T07:28:42;11.33;8.67;7.33
72854;PMS7003;60991;51.278;22.550;2023-01-13T07:30:12;16.00;9.00;7.33
72854;PMS7003;60991;51.278;22.550;2023-01-13T07:31:43;9.50;9.00;7.50
72854;PMS7003;60991;51.278;22.550;2023-01-13T07:33:13;8.50;6.50;5.75
72854;PMS7003;60991;51.278;22.550;2023-01-13T07:34:43;17.33;12.00;8.00
72854;PMS7003;60991;51.278;22.550;2023-01-13T07:36:13;9.00;9.00;7.33
72854;PMS7003;60991;51.278;22.550;2023-01-13T07:37:44;10.00;9.00;6.75
72854;PMS7003;60991;51.278;22.550;2023-01-13T07:39:14;10.00;9.33;6.00
72854;PMS7003;60991;51.278;22.550;2023-01-13T07:40:44;10.00;10.00;8.00
72854;PMS7003;60991;51.278;22.550;2023-01-13T07:42:14;10.00;10.00;7.00
72854;PMS7003;60991;51.278;22.550;2023-01-13T07:43:45;11.00;9.00;7.67
72854;PMS7003;60991;51.278;22.550;2023-01-13T07:45:15;12.25;6.00;5.50
72854;PMS7003;60991;51.278;22.550;2023-01-13T07:46:46;6.75;6.75;6.00
72854;PMS7003;60991;51.278;22.550;2023-01-13T07:48:16;9.33;9.00;7.00
72854;PMS7003;60991;51.278;22.550;2023-01-13T07:49:46;11.00;10.33;9.00
72854;PMS7003;60991;51.278;22.550;2023-01-13T07:51:16;9.00;9.00;7.00
72854;PMS7003;60991;51.278;22.550;2023-01-13T07:52:46;11.00;11.00;6.33
72854;PMS7003;60991;51.278;22.550;2023-01-13T07:54:17;13.75;9.50;8.50
72854;PMS7003;60991;51.278;22.550;2023-01-13T07:55:47;12.75;9.50;6.75
72854;PMS7003;60991;51.278;22.550;2023-01-13T07:57:17;18.00;11.00;8.33
72854;PMS7003;60991;51.278;22.550;2023-01-13T07:58:47;9.50;6.75;5.25
72854;PMS7003;60991;51.278;22.550;2023-01-13T08:00:18;10.33;10.33;7.67
72854;PMS7003;60991;51.278;22.550;2023-01-13T08:01:50;12.50;9.50;8.50
72854;PMS7003;60991;51.278;22.550;2023-01-13T08:03:21;9.50;9.50;8.50
72854;PMS7003;60991;51.278;22.550;2023-01-13T08:04:52;12.00;10.00;7.00
72854;PMS7003;60991;51.278;22.550;2023-01-13T08:06:22;12.33;7.67;6.00
72854;PMS7003;60991;51.278;22.550;2023-01-13T08:07:53;11.50;8.25;6.50
72854;PMS7003;60991;51.278;22.550;2023-01-13T08:09:23;10.50;7.00;6.00
72854;PMS7003;60991;51.278;22.550;2023-01-13T08:10:53;7.50;7.50;5.50
72854;PMS7003;60991;51.278;22.550;2023-01-13T08:12:23;7.00;6.67;6.00
72854;PMS7003;60991;51.278;22.550;2023-01-13T08:13:54;9.67;9.00;7.00
72854;PMS7003;60991;51.278;22.550;2023-01-13T08:15:25;13.50;13.50;6.00
72854;PMS7003;60991;51.278;22.550;2023-01-13T08:16:55;10.33;10.00;7.00
72854;PMS7003;60991;51.278;22.550;2023-01-13T08:18:25;14.00;10.67;9.00
72854;PMS7003;60991;51.278;22.550;2023-01-13T08:19:56;11.25;10.00;7.00
72854;PMS7003;60991;51.278;22.550;2023-01-13T08:21:26;13.67;10.00;6.00
72854;PMS7003;60991;51.278;22.550;2023-01-13T08:22:57;10.50;7.25;5.50
72854;PMS7003;60991;51.278;22.550;2023-01-13T08:24:28;8.25;7.50;6.75
72854;PMS7003;60991;51.278;22.550;2023-01-13T08:26:01;8.25;6.75;4.50
72854;PMS7003;60991;51.278;22.550;2023-01-13T08:27:36;10.25;6.75;5.00
72854;PMS7003;60991;51.278;22.550;2023-01-13T08:29:06;10.50;9.00;7.00
72854;PMS7003;60991;51.278;22.550;2023-01-13T08:30:36;13.00;10.00;9.00
72854;PMS7003;60991;51.278;22.550;2023-01-13T08:32:06;8.33;8.33;6.67
72854;PMS7003;60991;51.278;22.550;2023-01-13T08:33:37;9.75;7.00;6.00
72854;PMS7003;60991;51.278;22.550;2023-01-13T08:35:07;13.50;9.75;7.00
72854;PMS7003;60991;51.278;22.550;2023-01-13T08:36:38;8.50;7.00;6.00
72854;PMS7003;60991;51.278;22.550;2023-01-13T08:38:08;10.00;10.00;7.00
72854;PMS7003;60991;51.278;22.550;2023-01-13T08:39:38;6.75;6.00;5.00
72854;PMS7003;60991;51.278;22.550;2023-01-13T08:41:12;10.00;8.33;5.00
72854;PMS7003;60991;51.278;22.550;2023-01-13T08:42:45;15.75;9.00;6.00
72854;PMS7003;60991;51.278;22.550;2023-01-13T08:44:15;7.00;5.25;5.00
72854;PMS7003;60991;51.278;22.550;2023-01-13T08:45:53;7.67;7.00;5.00
72854;PMS7003;60991;51.278;22.550;2023-01-13T08:47:26;8.00;8.00;5.75
72854;PMS7003;60991;51.278;22.550;2023-01-13T08:48:56;10.00;7.00;6.25
72854;PMS7003;60991;51.278;22.550;2023-01-13T08:50:27;6.00;5.67;5.67
72854;PMS7003;60991;51.278;22.550;2023-01-13T08:51:57;12.75;10.50;7.00
72854;PMS7003;60991;51.278;22.550;2023-01-13T08:53:27;14.00;11.00;6.00
72854;PMS7003;60991;51.278;22.550;2023-01-13T08:54:57;11.00;7.00;6.00
72854;PMS7003;60991;51.278;22.550;2023-01-13T08:56:28;11.75;9.50;7.00
72854;PMS7003;60991;51.278;22.550;2023-01-13T08:57:59;5.50;5.00;2.00
72854;PMS7003;60991;51.278;22.550;2023-01-13T08:59:29;12.00;9.33;6.67
72854;PMS7003;60991;51.278;22.550;2023-01-13T09:01:03;12.25;10.00;7.00
72854;PMS7003;60991;51.278;22.550;2023-01-13T09:02:34;9.25;6.25;6.00
72854;PMS7003;60991;51.278;22.550;2023-01-13T09:04:04;9.00;9.00;7.00
72854;PMS7003;60991;51.278;22.550;2023-01-13T09:05:35;10.75;10.50;7.00
72854;PMS7003;60991;51.278;22.550;2023-01-13T09:07:05;10.25;10.25;6.75
72854;PMS7003;60991;51.278;22.550;2023-01-13T09:08:36;10.50;9.50;6.00
72854;PMS7003;60991;51.278;22.550;2023-01-13T09:10:06;10.00;10.00;7.25
72854;PMS7003;60991;51.278;22.550;2023-01-13T09:11:38;14.25;10.00;6.00